sensor_id;sensor_type;location;lat;lon;timestamp;temperature;humidity
7360;DHT22;3720;48.274;7.796;2023-11-19T00:01:05;10.70;99.90
7360;DHT22;3720;48.274;7.796;2023-11-19T00:03:37;10.70;99.90
7360;DHT22;3720;48.274;7.796;2023-11-19T00:06:08;10.70;99.90
7360;DHT22;3720;48.274;7.796;2023-11-19T00:08:41;10.70;99.90
7360;DHT22;3720;48.274;7.796;2023-11-19T00:11:14;10.70;99.90
7360;DHT22;3720;48.274;7.796;2023-11-19T00:13:47;10.60;99.90
7360;DHT22;3720;48.274;7.796;2023-11-19T00:16:19;10.60;99.90
7360;DHT22;3720;48.274;7.796;2023-11-19T00:18:51;10.60;99.90
7360;DHT22;3720;48.274;7.796;2023-11-19T00:21:23;10.70;99.90
7360;DHT22;3720;48.274;7.796;2023-11-19T00:23:55;10.70;99.90
7360;DHT22;3720;48.274;7.796;2023-11-19T00:26:28;10.80;99.90
7360;DHT22;3720;48.274;7.796;2023-11-19T00:29:02;10.80;99.90
7360;DHT22;3720;48.274;7.796;2023-11-19T00:31:34;10.90;99.90
7360;DHT22;3720;48.274;7.796;2023-11-19T00:34:05;10.90;99.90
7360;DHT22;3720;48.274;7.796;2023-11-19T00:36:37;11.00;99.90
7360;DHT22;3720;48.274;7.796;2023-11-19T00:39:09;11.00;99.90
7360;DHT22;3720;48.274;7.796;2023-11-19T00:41:41;11.10;99.90
7360;DHT22;3720;48.274;7.796;2023-11-19T00:44:14;11.10;99.90
7360;DHT22;3720;48.274;7.796;2023-11-19T00:46:46;11.10;99.90
7360;DHT22;3720;48.274;7.796;2023-11-19T00:49:18;11.10;99.90
7360;DHT22;3720;48.274;7.796;2023-11-19T00:51:50;11.10;99.90
7360;DHT22;3720;48.274;7.796;2023-11-19T00:54:22;11.10;99.90
7360;DHT22;3720;48.274;7.796;2023-11-19T00:56:56;11.20;99.90
7360;DHT22;3720;48.274;7.796;2023-11-19T00:59:29;11.10;99.90
7360;DHT22;3720;48.274;7.796;2023-11-19T01:02:01;11.10;99.90
7360;DHT22;3720;48.274;7.796;2023-11-19T01:04:34;11.10;99.90
7360;DHT22;3720;48.274;7.796;2023-11-19T01:07:06;11.10;99.90
7360;DHT22;3720;48.274;7.796;2023-11-19T01:09:43;11.10;99.90
7360;DHT22;3720;48.274;7.796;2023-11-19T01:12:14;11.10;99.90
7360;DHT22;3720;48.274;7.796;2023-11-19T01:14:48;11.10;99.90
7360;DHT22;3720;48.274;7.796;2023-11-19T01:17:20;11.20;99.90
7360;DHT22;3720;48.274;7.796;2023-11-19T01:19:52;11.20;99.90
7360;DHT22;3720;48.274;7.796;2023-11-19T01:22:23;11.20;99.90
7360;DHT22;3720;48.274;7.796;2023-11-19T01:24:55;11.30;99.90
7360;DHT22;3720;48.274;7.796;2023-11-19T01:27:28;11.40;99.90
7360;DHT22;3720;48.274;7.796;2023-11-19T01:30:02;11.50;99.90
7360;DHT22;3720;48.274;7.796;2023-11-19T01:32:36;11.60;99.90
7360;DHT22;3720;48.274;7.796;2023-11-19T01:35:08;11.60;99.90
7360;DHT22;3720;48.274;7.796;2023-11-19T01:37:40;11.70;99.90
7360;DHT22;3720;48.274;7.796;2023-11-19T01:40:12;11.80;99.90
7360;DHT22;3720;48.274;7.796;2023-11-19T01:42:44;11.80;99.90
7360;DHT22;3720;48.274;7.796;2023-11-19T01:45:23;11.80;99.90
7360;DHT22;3720;48.274;7.796;2023-11-19T01:48:00;11.80;99.90
7360;DHT22;3720;48.274;7.796;2023-11-19T01:50:34;11.80;99.90
7360;DHT22;3720;48.274;7.796;2023-11-19T01:53:07;11.80;99.90
7360;DHT22;3720;48.274;7.796;2023-11-19T01:55:39;11.80;99.90
7360;DHT22;3720;48.274;7.796;2023-11-19T01:58:11;11.80;99.90
7360;DHT22;3720;48.274;7.796;2023-11-19T02:00:45;11.70;99.90
7360;DHT22;3720;48.274;7.796;2023-11-19T02:03:17;11.70;99.90
7360;DHT22;3720;48.274;7.796;2023-11-19T02:05:49;11.70;99.90
7360;DHT22;3720;48.274;7.796;2023-11-19T02:08:21;11.70;99.90
7360;DHT22;3720;48.274;7.796;2023-11-19T02:10:53;11.70;99.90
7360;DHT22;3720;48.274;7.796;2023-11-19T02:13:27;11.80;99.90
7360;DHT22;3720;48.274;7.796;2023-11-19T02:16:01;11.80;99.90
7360;DHT22;3720;48.274;7.796;2023-11-19T02:18:33;11.80;99.90
7360;DHT22;3720;48.274;7.796;2023-11-19T02:21:05;11.80;99.90
7360;DHT22;3720;48.274;7.796;2023-11-19T02:23:37;11.80;99.90
7360;DHT22;3720;48.274;7.796;2023-11-19T02:26:16;11.80;99.90
7360;DHT22;3720;48.274;7.796;2023-11-19T02:28:51;11.80;99.90
7360;DHT22;3720;48.274;7.796;2023-11-19T02:31:23;11.80;99.90
7360;DHT22;3720;48.274;7.796;2023-11-19T02:33:54;11.80;99.90
7360;DHT22;3720;48.274;7.796;2023-11-19T02:36:26;11.80;99.90
7360;DHT22;3720;48.274;7.796;2023-11-19T02:38:58;11.80;99.90
7360;DHT22;3720;48.274;7.796;2023-11-19T02:41:30;11.80;99.90
7360;DHT22;3720;48.274;7.796;2023-11-19T02:44:04;11.70;99.90
7360;DHT22;3720;48.274;7.796;2023-11-19T02:46:36;11.80;99.90
7360;DHT22;3720;48.274;7.796;2023-11-19T02:49:07;11.80;99.90
7360;DHT22;3720;48.274;7.796;2023-11-19T02:51:39;11.70;99.90
7360;DHT22;3720;48.274;7.796;2023-11-19T02:54:11;11.70;99.90
7360;DHT22;3720;48.274;7.796;2023-11-19T02:56:43;11.70;99.90
7360;DHT22;3720;48.274;7.796;2023-11-19T02:59:19;11.80;99.90
7360;DHT22;3720;48.274;7.796;2023-11-19T03:01:57;11.70;99.90
7360;DHT22;3720;48.274;7.796;2023-11-19T03:04:30;11.70;99.90
7360;DHT22;3720;48.274;7.796;2023-11-19T03:07:02;11.70;99.90
7360;DHT22;3720;48.274;7.796;2023-11-19T03:09:33;11.70;99.90
7360;DHT22;3720;48.274;7.796;2023-11-19T03:12:06;11.70;99.90
7360;DHT22;3720;48.274;7.796;2023-11-19T03:14:40;11.70;99.90
7360;DHT22;3720;48.274;7.796;2023-11-19T03:17:11;11.80;99.90
7360;DHT22;3720;48.274;7.796;2023-11-19T03:19:43;11.70;99.90
7360;DHT22;3720;48.274;7.796;2023-11-19T03:22:15;11.80;99.90
7360;DHT22;3720;48.274;7.796;2023-11-19T03:24:47;11.70;99.90
7360;DHT22;3720;48.274;7.796;2023-11-19T03:27:22;11.70;99.90
7360;DHT22;3720;48.274;7.796;2023-11-19T03:29:55;11.70;99.90
7360;DHT22;3720;48.274;7.796;2023-11-19T03:32:27;11.70;99.90
7360;DHT22;3720;48.274;7.796;2023-11-19T03:34:59;11.80;99.90
7360;DHT22;3720;48.274;7.796;2023-11-19T03:37:30;11.80;99.90
7360;DHT22;3720;48.274;7.796;2023-11-19T03:40:04;11.80;99.90
7360;DHT22;3720;48.274;7.796;2023-11-19T03:42:36;11.80;99.90
7360;DHT22;3720;48.274;7.796;2023-11-19T03:45:11;11.80;99.90
7360;DHT22;3720;48.274;7.796;2023-11-19T03:47:43;11.80;99.90
7360;DHT22;3720;48.274;7.796;2023-11-19T03:50:15;11.80;99.90
7360;DHT22;3720;48.274;7.796;2023-11-19T03:52:47;11.80;99.90
7360;DHT22;3720;48.274;7.796;2023-11-19T03:55:19;11.80;99.90
7360;DHT22;3720;48.274;7.796;2023-11-19T03:57:50;11.80;99.90
7360;DHT22;3720;48.274;7.796;2023-11-19T04:00:24;11.80;99.90
7360;DHT22;3720;48.274;7.796;2023-11-19T04:02:55;11.80;99.90
7360;DHT22;3720;48.274;7.796;2023-11-19T04:05:27;11.90;99.90
7360;DHT22;3720;48.274;7.796;2023-11-19T04:07:59;11.80;99.90
7360;DHT22;3720;48.274;7.796;2023-11-19T04:10:31;11.80;99.90
7360;DHT22;3720;48.274;7.796;2023-11-19T04:13:02;11.80;99.90
7360;DHT22;3720;48.274;7.796;2023-11-19T04:15:36;11.80;99.90
7360;DHT22;3720;48.274;7.796;2023-11-19T04:18:08;11.80;99.90
7360;DHT22;3720;48.274;7.796;2023-11-19T04:20:40;11.90;99.90
7360;DHT22;3720;48.274;7.796;2023-11-19T04:23:12;11.90;99.90
7360;DHT22;3720;48.274;7.796;2023-11-19T04:25:44;12.00;99.90
7360;DHT22;3720;48.274;7.796;2023-11-19T04:28:16;11.90;99.90
7360;DHT22;3720;48.274;7.796;2023-11-19T04:30:50;11.90;99.90
7360;DHT22;3720;48.274;7.796;2023-11-19T04:33:21;11.90;99.90
7360;DHT22;3720;48.274;7.796;2023-11-19T04:35:53;11.90;99.90
7360;DHT22;3720;48.274;7.796;2023-11-19T04:38:25;11.90;99.90
7360;DHT22;3720;48.274;7.796;2023-11-19T04:40:57;11.90;99.90
7360;DHT22;3720;48.274;7.796;2023-11-19T04:43:29;11.90;99.90
7360;DHT22;3720;48.274;7.796;2023-11-19T04:46:05;11.90;99.90
7360;DHT22;3720;48.274;7.796;2023-11-19T04:48:37;11.90;99.90
7360;DHT22;3720;48.274;7.796;2023-11-19T04:51:09;12.00;99.90
7360;DHT22;3720;48.274;7.796;2023-11-19T04:53:41;12.00;99.90
7360;DHT22;3720;48.274;7.796;2023-11-19T04:56:13;12.00;99.90
7360;DHT22;3720;48.274;7.796;2023-11-19T04:58:45;12.10;99.90
7360;DHT22;3720;48.274;7.796;2023-11-19T05:01:19;12.00;99.90
7360;DHT22;3720;48.274;7.796;2023-11-19T05:03:51;12.10;99.90
7360;DHT22;3720;48.274;7.796;2023-11-19T05:06:23;12.10;99.90
7360;DHT22;3720;48.274;7.796;2023-11-19T05:08:55;12.20;99.90
7360;DHT22;3720;48.274;7.796;2023-11-19T05:11:27;12.20;99.90
7360;DHT22;3720;48.274;7.796;2023-11-19T05:13:59;12.20;99.90
7360;DHT22;3720;48.274;7.796;2023-11-19T05:16:32;12.20;99.90
7360;DHT22;3720;48.274;7.796;2023-11-19T05:19:05;12.20;99.90
7360;DHT22;3720;48.274;7.796;2023-11-19T05:21:37;12.20;99.90
7360;DHT22;3720;48.274;7.796;2023-11-19T05:24:09;12.30;99.90
7360;DHT22;3720;48.274;7.796;2023-11-19T05:26:42;12.30;99.90
7360;DHT22;3720;48.274;7.796;2023-11-19T05:29:14;12.30;99.90
7360;DHT22;3720;48.274;7.796;2023-11-19T05:31:47;12.30;99.90
7360;DHT22;3720;48.274;7.796;2023-11-19T05:34:19;12.30;99.90
7360;DHT22;3720;48.274;7.796;2023-11-19T05:36:50;12.30;99.90
7360;DHT22;3720;48.274;7.796;2023-11-19T05:39:22;12.30;99.90
7360;DHT22;3720;48.274;7.796;2023-11-19T05:41:55;12.20;99.90
7360;DHT22;3720;48.274;7.796;2023-11-19T05:44:26;12.20;99.90
7360;DHT22;3720;48.274;7.796;2023-11-19T05:47:00;12.20;99.90
7360;DHT22;3720;48.274;7.796;2023-11-19T05:49:31;12.30;99.90
7360;DHT22;3720;48.274;7.796;2023-11-19T05:52:04;12.30;99.90
7360;DHT22;3720;48.274;7.796;2023-11-19T05:54:38;12.40;99.90
7360;DHT22;3720;48.274;7.796;2023-11-19T05:57:09;12.40;99.90
7360;DHT22;3720;48.274;7.796;2023-11-19T05:59:42;12.40;99.90
7360;DHT22;3720;48.274;7.796;2023-11-19T06:02:16;12.50;99.90
7360;DHT22;3720;48.274;7.796;2023-11-19T06:04:47;12.50;99.90
7360;DHT22;3720;48.274;7.796;2023-11-19T06:07:20;12.60;99.90
7360;DHT22;3720;48.274;7.796;2023-11-19T06:09:52;12.60;99.90
7360;DHT22;3720;48.274;7.796;2023-11-19T06:12:23;12.60;99.90
7360;DHT22;3720;48.274;7.796;2023-11-19T06:14:55;12.60;99.90
7360;DHT22;3720;48.274;7.796;2023-11-19T06:17:28;12.60;99.90
7360;DHT22;3720;48.274;7.796;2023-11-19T06:20:00;12.70;99.90
7360;DHT22;3720;48.274;7.796;2023-11-19T06:22:34;12.70;99.90
7360;DHT22;3720;48.274;7.796;2023-11-19T06:25:07;12.70;99.90
7360;DHT22;3720;48.274;7.796;2023-11-19T06:27:39;12.70;99.90
7360;DHT22;3720;48.274;7.796;2023-11-19T06:30:11;12.70;99.90
7360;DHT22;3720;48.274;7.796;2023-11-19T06:32:45;12.70;99.90
7360;DHT22;3720;48.274;7.796;2023-11-19T06:35:17;12.70;99.90
7360;DHT22;3720;48.274;7.796;2023-11-19T06:37:49;12.80;99.90
7360;DHT22;3720;48.274;7.796;2023-11-19T06:40:21;12.80;99.90
7360;DHT22;3720;48.274;7.796;2023-11-19T06:42:52;12.90;99.90
7360;DHT22;3720;48.274;7.796;2023-11-19T06:45:24;12.90;99.90
7360;DHT22;3720;48.274;7.796;2023-11-19T06:47:57;13.00;99.90
7360;DHT22;3720;48.274;7.796;2023-11-19T06:50:30;13.00;99.90
7360;DHT22;3720;48.274;7.796;2023-11-19T06:53:02;13.00;99.90
7360;DHT22;3720;48.274;7.796;2023-11-19T06:55:35;13.00;99.90
7360;DHT22;3720;48.274;7.796;2023-11-19T06:58:06;13.00;99.90
7360;DHT22;3720;48.274;7.796;2023-11-19T07:00:38;13.00;99.90
7360;DHT22;3720;48.274;7.796;2023-11-19T07:03:11;13.10;99.90
7360;DHT22;3720;48.274;7.796;2023-11-19T07:05:43;13.10;99.90
7360;DHT22;3720;48.274;7.796;2023-11-19T07:08:15;13.10;99.90
7360;DHT22;3720;48.274;7.796;2023-11-19T07:10:47;13.10;99.90
7360;DHT22;3720;48.274;7.796;2023-11-19T07:13:19;13.10;99.90
7360;DHT22;3720;48.274;7.796;2023-11-19T07:15:51;13.10;99.90
7360;DHT22;3720;48.274;7.796;2023-11-19T07:18:25;13.20;99.90
7360;DHT22;3720;48.274;7.796;2023-11-19T07:20:57;13.20;99.90
7360;DHT22;3720;48.274;7.796;2023-11-19T07:23:30;13.20;99.90
7360;DHT22;3720;48.274;7.796;2023-11-19T07:26:05;13.20;99.90
7360;DHT22;3720;48.274;7.796;2023-11-19T07:28:38;13.20;99.90
7360;DHT22;3720;48.274;7.796;2023-11-19T07:31:13;13.20;99.90
7360;DHT22;3720;48.274;7.796;2023-11-19T07:33:46;13.30;99.90
7360;DHT22;3720;48.274;7.796;2023-11-19T07:36:18;13.30;99.90
7360;DHT22;3720;48.274;7.796;2023-11-19T07:38:50;13.30;99.90
7360;DHT22;3720;48.274;7.796;2023-11-19T07:41:22;13.40;99.90
7360;DHT22;3720;48.274;7.796;2023-11-19T07:43:55;13.40;99.90
7360;DHT22;3720;48.274;7.796;2023-11-19T07:46:27;13.40;99.90
7360;DHT22;3720;48.274;7.796;2023-11-19T07:49:00;13.40;99.90
7360;DHT22;3720;48.274;7.796;2023-11-19T07:51:33;13.40;99.90
7360;DHT22;3720;48.274;7.796;2023-11-19T07:54:05;13.40;99.90
7360;DHT22;3720;48.274;7.796;2023-11-19T07:56:37;13.50;99.90
7360;DHT22;3720;48.274;7.796;2023-11-19T07:59:09;13.50;99.90
7360;DHT22;3720;48.274;7.796;2023-11-19T08:01:40;13.50;99.90
7360;DHT22;3720;48.274;7.796;2023-11-19T08:04:14;13.50;99.90
7360;DHT22;3720;48.274;7.796;2023-11-19T08:06:46;13.50;99.90
7360;DHT22;3720;48.274;7.796;2023-11-19T08:09:18;13.50;99.90
7360;DHT22;3720;48.274;7.796;2023-11-19T08:11:49;13.60;99.90
7360;DHT22;3720;48.274;7.796;2023-11-19T08:14:21;13.60;99.90
7360;DHT22;3720;48.274;7.796;2023-11-19T08:16:53;13.60;99.90
7360;DHT22;3720;48.274;7.796;2023-11-19T08:19:27;13.60;99.90
7360;DHT22;3720;48.274;7.796;2023-11-19T08:21:58;13.70;99.90
7360;DHT22;3720;48.274;7.796;2023-11-19T08:24:30;13.70;99.90
7360;DHT22;3720;48.274;7.796;2023-11-19T08:27:02;13.70;99.90
7360;DHT22;3720;48.274;7.796;2023-11-19T08:29:35;13.70;99.90
7360;DHT22;3720;48.274;7.796;2023-11-19T08:32:07;13.70;99.90
7360;DHT22;3720;48.274;7.796;2023-11-19T08:34:40;13.70;99.90
7360;DHT22;3720;48.274;7.796;2023-11-19T08:37:12;13.70;99.90
7360;DHT22;3720;48.274;7.796;2023-11-19T08:39:44;13.70;99.90
7360;DHT22;3720;48.274;7.796;2023-11-19T08:42:17;13.70;99.90
7360;DHT22;3720;48.274;7.796;2023-11-19T08:44:49;13.70;99.90
7360;DHT22;3720;48.274;7.796;2023-11-19T08:47:24;13.70;99.90
7360;DHT22;3720;48.274;7.796;2023-11-19T08:49:57;13.80;99.90
7360;DHT22;3720;48.274;7.796;2023-11-19T08:52:29;13.80;99.90
7360;DHT22;3720;48.274;7.796;2023-11-19T08:55:01;13.80;99.90
7360;DHT22;3720;48.274;7.796;2023-11-19T08:57:36;13.70;99.90
7360;DHT22;3720;48.274;7.796;2023-11-19T09:00:08;13.80;99.90
7360;DHT22;3720;48.274;7.796;2023-11-19T09:02:40;13.80;99.90
7360;DHT22;3720;48.274;7.796;2023-11-19T09:05:13;13.80;99.90
7360;DHT22;3720;48.274;7.796;2023-11-19T09:07:45;13.80;99.90
7360;DHT22;3720;48.274;7.796;2023-11-19T09:10:17;13.80;99.90
7360;DHT22;3720;48.274;7.796;2023-11-19T09:12:48;13.80;99.90
7360;DHT22;3720;48.274;7.796;2023-11-19T09:15:20;13.80;99.90
7360;DHT22;3720;48.274;7.796;2023-11-19T09:17:52;13.80;99.90
7360;DHT22;3720;48.274;7.796;2023-11-19T09:20:25;13.80;99.90
7360;DHT22;3720;48.274;7.796;2023-11-19T09:22:57;13.90;99.90
7360;DHT22;3720;48.274;7.796;2023-11-19T09:25:29;13.90;99.90
7360;DHT22;3720;48.274;7.796;2023-11-19T09:28:00;13.90;99.90
7360;DHT22;3720;48.274;7.796;2023-11-19T09:30:32;13.90;99.90
7360;DHT22;3720;48.274;7.796;2023-11-19T09:33:04;13.90;99.90
7360;DHT22;3720;48.274;7.796;2023-11-19T09:35:37;14.00;99.90
7360;DHT22;3720;48.274;7.796;2023-11-19T09:38:09;14.00;99.90
7360;DHT22;3720;48.274;7.796;2023-11-19T09:40:43;14.00;99.90
7360;DHT22;3720;48.274;7.796;2023-11-19T09:43:15;14.00;99.90
7360;DHT22;3720;48.274;7.796;2023-11-19T09:45:49;14.00;99.90
7360;DHT22;3720;48.274;7.796;2023-11-19T09:48:21;14.00;99.90
7360;DHT22;3720;48.274;7.796;2023-11-19T09:50:57;14.10;99.90
7360;DHT22;3720;48.274;7.796;2023-11-19T09:53:30;14.00;99.90
7360;DHT22;3720;48.274;7.796;2023-11-19T09:56:02;14.00;99.90
7360;DHT22;3720;48.274;7.796;2023-11-19T09:58:34;14.10;99.90
7360;DHT22;3720;48.274;7.796;2023-11-19T10:01:06;14.10;99.90
7360;DHT22;3720;48.274;7.796;2023-11-19T10:03:41;14.10;99.90
7360;DHT22;3720;48.274;7.796;2023-11-19T10:06:16;14.00;99.90
7360;DHT22;3720;48.274;7.796;2023-11-19T10:08:49;14.10;99.90
7360;DHT22;3720;48.274;7.796;2023-11-19T10:11:21;14.10;99.90
7360;DHT22;3720;48.274;7.796;2023-11-19T10:13:53;14.20;99.90
7360;DHT22;3720;48.274;7.796;2023-11-19T10:16:28;14.10;99.90
7360;DHT22;3720;48.274;7.796;2023-11-19T10:19:01;14.10;99.90
7360;DHT22;3720;48.274;7.796;2023-11-19T10:21:35;14.10;99.90
7360;DHT22;3720;48.274;7.796;2023-11-19T10:24:07;14.10;99.90
7360;DHT22;3720;48.274;7.796;2023-11-19T10:26:40;14.20;99.90
7360;DHT22;3720;48.274;7.796;2023-11-19T10:29:13;14.20;99.90
7360;DHT22;3720;48.274;7.796;2023-11-19T10:31:55;14.20;99.90
7360;DHT22;3720;48.274;7.796;2023-11-19T10:34:27;14.20;99.90
7360;DHT22;3720;48.274;7.796;2023-11-19T10:37:02;14.30;99.90
7360;DHT22;3720;48.274;7.796;2023-11-19T10:39:51;14.20;99.90
7360;DHT22;3720;48.274;7.796;2023-11-19T10:42:24;14.20;99.90
7360;DHT22;3720;48.274;7.796;2023-11-19T10:44:56;14.20;99.90
7360;DHT22;3720;48.274;7.796;2023-11-19T10:47:29;14.20;99.90
7360;DHT22;3720;48.274;7.796;2023-11-19T10:50:01;14.20;99.90
7360;DHT22;3720;48.274;7.796;2023-11-19T10:52:34;14.30;99.90
7360;DHT22;3720;48.274;7.796;2023-11-19T10:55:08;14.30;99.90
7360;DHT22;3720;48.274;7.796;2023-11-19T10:57:47;14.40;99.90
7360;DHT22;3720;48.274;7.796;2023-11-19T11:00:22;14.40;99.90
7360;DHT22;3720;48.274;7.796;2023-11-19T11:02:59;14.40;99.90
7360;DHT22;3720;48.274;7.796;2023-11-19T11:05:32;14.50;99.90
7360;DHT22;3720;48.274;7.796;2023-11-19T11:08:06;14.60;99.90
7360;DHT22;3720;48.274;7.796;2023-11-19T11:10:43;14.60;99.90
7360;DHT22;3720;48.274;7.796;2023-11-19T11:13:16;14.60;99.90
7360;DHT22;3720;48.274;7.796;2023-11-19T11:15:49;14.60;99.90
7360;DHT22;3720;48.274;7.796;2023-11-19T11:18:21;14.60;99.90
7360;DHT22;3720;48.274;7.796;2023-11-19T11:20:56;14.60;99.90
7360;DHT22;3720;48.274;7.796;2023-11-19T11:24:03;14.70;99.90
7360;DHT22;3720;48.274;7.796;2023-11-19T11:26:56;14.60;99.90
7360;DHT22;3720;48.274;7.796;2023-11-19T11:29:37;14.80;99.90
7360;DHT22;3720;48.274;7.796;2023-11-19T11:32:21;14.90;99.90
7360;DHT22;3720;48.274;7.796;2023-11-19T11:35:13;15.00;99.90
7360;DHT22;3720;48.274;7.796;2023-11-19T11:37:50;15.10;99.90
7360;DHT22;3720;48.274;7.796;2023-11-19T11:40:26;15.10;99.90
7360;DHT22;3720;48.274;7.796;2023-11-19T11:42:58;15.10;99.90
7360;DHT22;3720;48.274;7.796;2023-11-19T11:45:36;15.10;99.90
7360;DHT22;3720;48.274;7.796;2023-11-19T11:48:10;15.00;99.90
7360;DHT22;3720;48.274;7.796;2023-11-19T11:50:55;15.00;99.90
7360;DHT22;3720;48.274;7.796;2023-11-19T11:53:30;15.00;99.90
7360;DHT22;3720;48.274;7.796;2023-11-19T11:56:04;15.00;99.90
7360;DHT22;3720;48.274;7.796;2023-11-19T11:58:40;15.00;99.90
7360;DHT22;3720;48.274;7.796;2023-11-19T12:01:15;15.00;99.90
7360;DHT22;3720;48.274;7.796;2023-11-19T12:03:51;15.00;99.90
7360;DHT22;3720;48.274;7.796;2023-11-19T12:06:23;15.00;99.90
7360;DHT22;3720;48.274;7.796;2023-11-19T12:08:59;15.00;99.90
7360;DHT22;3720;48.274;7.796;2023-11-19T12:11:33;15.10;99.90
7360;DHT22;3720;48.274;7.796;2023-11-19T12:14:05;15.10;99.90
7360;DHT22;3720;48.274;7.796;2023-11-19T12:16:37;15.10;99.90
7360;DHT22;3720;48.274;7.796;2023-11-19T12:19:09;15.10;99.90
7360;DHT22;3720;48.274;7.796;2023-11-19T12:21:41;15.20;99.90
7360;DHT22;3720;48.274;7.796;2023-11-19T12:24:13;15.20;99.90
7360;DHT22;3720;48.274;7.796;2023-11-19T12:26:46;15.20;99.90
7360;DHT22;3720;48.274;7.796;2023-11-19T12:29:20;15.20;99.90
7360;DHT22;3720;48.274;7.796;2023-11-19T12:31:54;15.20;99.90
7360;DHT22;3720;48.274;7.796;2023-11-19T12:34:25;15.20;99.90
7360;DHT22;3720;48.274;7.796;2023-11-19T12:36:57;15.30;99.90
7360;DHT22;3720;48.274;7.796;2023-11-19T12:39:31;15.40;99.90
7360;DHT22;3720;48.274;7.796;2023-11-19T12:42:04;15.50;99.90
7360;DHT22;3720;48.274;7.796;2023-11-19T12:44:36;15.70;99.90
7360;DHT22;3720;48.274;7.796;2023-11-19T12:47:08;16.00;99.90
7360;DHT22;3720;48.274;7.796;2023-11-19T12:49:41;16.10;99.90
7360;DHT22;3720;48.274;7.796;2023-11-19T12:52:13;16.30;99.90
7360;DHT22;3720;48.274;7.796;2023-11-19T12:54:45;16.40;99.90
7360;DHT22;3720;48.274;7.796;2023-11-19T12:57:18;16.40;99.90
7360;DHT22;3720;48.274;7.796;2023-11-19T12:59:56;16.30;99.90
7360;DHT22;3720;48.274;7.796;2023-11-19T13:02:46;16.40;99.90
7360;DHT22;3720;48.274;7.796;2023-11-19T13:05:25;16.70;99.90
7360;DHT22;3720;48.274;7.796;2023-11-19T13:07:59;16.70;99.90
7360;DHT22;3720;48.274;7.796;2023-11-19T13:10:32;16.80;99.90
7360;DHT22;3720;48.274;7.796;2023-11-19T13:13:06;16.90;99.90
7360;DHT22;3720;48.274;7.796;2023-11-19T13:15:38;17.00;99.90
7360;DHT22;3720;48.274;7.796;2023-11-19T13:18:11;17.10;99.90
7360;DHT22;3720;48.274;7.796;2023-11-19T13:20:43;17.00;99.90
7360;DHT22;3720;48.274;7.796;2023-11-19T13:23:15;17.00;99.90
7360;DHT22;3720;48.274;7.796;2023-11-19T13:25:46;17.00;99.90
7360;DHT22;3720;48.274;7.796;2023-11-19T13:28:20;17.00;99.90
7360;DHT22;3720;48.274;7.796;2023-11-19T13:30:53;17.10;99.90
7360;DHT22;3720;48.274;7.796;2023-11-19T13:33:25;17.10;99.90
7360;DHT22;3720;48.274;7.796;2023-11-19T13:35:57;17.10;99.90
7360;DHT22;3720;48.274;7.796;2023-11-19T13:38:30;17.00;99.90
7360;DHT22;3720;48.274;7.796;2023-11-19T13:41:02;17.10;99.90
7360;DHT22;3720;48.274;7.796;2023-11-19T13:43:36;17.00;99.90
7360;DHT22;3720;48.274;7.796;2023-11-19T13:46:08;17.00;99.90
7360;DHT22;3720;48.274;7.796;2023-11-19T13:48:40;16.90;99.90
7360;DHT22;3720;48.274;7.796;2023-11-19T13:51:12;16.90;99.90
7360;DHT22;3720;48.274;7.796;2023-11-19T13:53:44;16.90;99.90
7360;DHT22;3720;48.274;7.796;2023-11-19T13:56:17;17.00;99.90
7360;DHT22;3720;48.274;7.796;2023-11-19T13:58:50;17.00;99.90
7360;DHT22;3720;48.274;7.796;2023-11-19T14:01:24;17.10;99.90
7360;DHT22;3720;48.274;7.796;2023-11-19T14:03:57;17.10;99.90
7360;DHT22;3720;48.274;7.796;2023-11-19T14:06:29;17.10;99.90
7360;DHT22;3720;48.274;7.796;2023-11-19T14:09:00;17.10;99.90
7360;DHT22;3720;48.274;7.796;2023-11-19T14:11:33;17.10;99.90
7360;DHT22;3720;48.274;7.796;2023-11-19T14:14:06;17.10;99.90
7360;DHT22;3720;48.274;7.796;2023-11-19T14:16:38;17.10;99.90
7360;DHT22;3720;48.274;7.796;2023-11-19T14:19:10;17.10;99.90
7360;DHT22;3720;48.274;7.796;2023-11-19T14:21:42;17.10;99.90
7360;DHT22;3720;48.274;7.796;2023-11-19T14:24:15;17.10;99.90
7360;DHT22;3720;48.274;7.796;2023-11-19T14:26:47;17.10;99.90
7360;DHT22;3720;48.274;7.796;2023-11-19T14:29:22;17.10;99.90
7360;DHT22;3720;48.274;7.796;2023-11-19T14:31:53;17.10;99.90
7360;DHT22;3720;48.274;7.796;2023-11-19T14:34:25;17.10;99.90
7360;DHT22;3720;48.274;7.796;2023-11-19T14:36:57;17.20;99.90
7360;DHT22;3720;48.274;7.796;2023-11-19T14:39:30;17.10;99.90
7360;DHT22;3720;48.274;7.796;2023-11-19T14:42:02;17.10;99.90
7360;DHT22;3720;48.274;7.796;2023-11-19T14:44:37;17.10;99.90
7360;DHT22;3720;48.274;7.796;2023-11-19T14:47:09;17.00;99.90
7360;DHT22;3720;48.274;7.796;2023-11-19T14:49:40;16.90;99.90
7360;DHT22;3720;48.274;7.796;2023-11-19T14:52:12;16.90;99.90
7360;DHT22;3720;48.274;7.796;2023-11-19T14:54:44;16.70;99.90
7360;DHT22;3720;48.274;7.796;2023-11-19T14:57:16;16.50;99.90
7360;DHT22;3720;48.274;7.796;2023-11-19T14:59:49;16.30;99.90
7360;DHT22;3720;48.274;7.796;2023-11-19T15:02:21;16.30;99.90
7360;DHT22;3720;48.274;7.796;2023-11-19T15:04:53;16.40;99.90
7360;DHT22;3720;48.274;7.796;2023-11-19T15:07:25;16.30;99.90
7360;DHT22;3720;48.274;7.796;2023-11-19T15:09:56;16.20;99.90
7360;DHT22;3720;48.274;7.796;2023-11-19T15:12:28;16.10;99.90
7360;DHT22;3720;48.274;7.796;2023-11-19T15:15:02;16.10;99.90
7360;DHT22;3720;48.274;7.796;2023-11-19T15:17:33;16.00;99.90
7360;DHT22;3720;48.274;7.796;2023-11-19T15:20:07;16.00;99.90
7360;DHT22;3720;48.274;7.796;2023-11-19T15:22:39;15.90;99.90
7360;DHT22;3720;48.274;7.796;2023-11-19T15:25:12;15.80;99.90
7360;DHT22;3720;48.274;7.796;2023-11-19T15:27:43;15.80;99.90
7360;DHT22;3720;48.274;7.796;2023-11-19T15:30:17;15.80;99.90
7360;DHT22;3720;48.274;7.796;2023-11-19T15:32:49;15.70;99.90
7360;DHT22;3720;48.274;7.796;2023-11-19T15:35:20;15.60;99.90
7360;DHT22;3720;48.274;7.796;2023-11-19T15:37:52;15.60;99.90
7360;DHT22;3720;48.274;7.796;2023-11-19T15:40:26;15.50;99.90
7360;DHT22;3720;48.274;7.796;2023-11-19T15:42:58;15.40;99.90
7360;DHT22;3720;48.274;7.796;2023-11-19T15:45:33;15.30;99.90
7360;DHT22;3720;48.274;7.796;2023-11-19T15:48:08;15.30;99.90
7360;DHT22;3720;48.274;7.796;2023-11-19T15:50:44;15.30;99.90
7360;DHT22;3720;48.274;7.796;2023-11-19T15:53:16;15.20;99.90
7360;DHT22;3720;48.274;7.796;2023-11-19T15:55:48;15.10;99.90
7360;DHT22;3720;48.274;7.796;2023-11-19T15:58:23;15.10;99.90
7360;DHT22;3720;48.274;7.796;2023-11-19T16:00:56;15.00;99.90
7360;DHT22;3720;48.274;7.796;2023-11-19T16:03:28;14.90;99.90
7360;DHT22;3720;48.274;7.796;2023-11-19T16:06:01;14.90;99.90
7360;DHT22;3720;48.274;7.796;2023-11-19T16:08:33;14.80;99.90
7360;DHT22;3720;48.274;7.796;2023-11-19T16:11:05;14.70;99.90
7360;DHT22;3720;48.274;7.796;2023-11-19T16:13:38;14.60;99.90
7360;DHT22;3720;48.274;7.796;2023-11-19T16:16:11;14.60;99.90
7360;DHT22;3720;48.274;7.796;2023-11-19T16:18:43;14.60;99.90
7360;DHT22;3720;48.274;7.796;2023-11-19T16:21:15;14.50;99.90
7360;DHT22;3720;48.274;7.796;2023-11-19T16:23:48;14.50;99.90
7360;DHT22;3720;48.274;7.796;2023-11-19T16:26:20;14.40;99.90
7360;DHT22;3720;48.274;7.796;2023-11-19T16:28:52;14.30;99.90
7360;DHT22;3720;48.274;7.796;2023-11-19T16:31:25;14.30;99.90
7360;DHT22;3720;48.274;7.796;2023-11-19T16:33:57;14.30;99.90
7360;DHT22;3720;48.274;7.796;2023-11-19T16:36:30;14.30;99.90
7360;DHT22;3720;48.274;7.796;2023-11-19T16:39:02;14.30;99.90